Terminal Aerodrome Forecast
Issued by NWS Charleston, WV

Current Version | Previous Version | Graphics & Text | Print | Product List | Glossary On
Versions: 1 2 3 4 5 6 7 8 9 10 11 12 13 14 15 16 17 18 19 20 21 22 23 24 25 26 27
000
FTUS41 KRLX 201500 AAB
TAFPKB
TAF AMD
KPKB 201506Z 2015/2112 VRB03KT P6SM BKN070
     FM210500 00000KT 5SM BR SCT040
     FM210900 00000KT 1 1/2SM BR SCT001 SCT040=

USA.gov is the U.S. government's official web portal to all federal, state and local government web resources and services.